Terminal Aerodrome Forecast
Issued by NWS

Home | Current Version | Previous Version | Text Only | Print | Product List | Glossary On
Versions: 1 2 3 4 5 6 7 8 9 10 11 12 13 14 15
000
FTUS44 KCRP 291500 AAB
TAFALI
TAF AMD
KALI 291506Z 2915/3012 08012KT P6SM BKN035
      TEMPO 2915/2917 BKN012
     FM291800 13014KT P6SM VCTS SCT035CB BKN050
      TEMPO 2918/2922 5SM -TSRA BKN030CB
     FM300200 13008KT P6SM BKN050
     FM300800 VRB04KT P6SM FEW024 SCT040=

USA.gov is the U.S. government's official web portal to all federal, state and local government web resources and services.